Time;durP1;ratioP1;P1;durP2;ratioP2;P2;SDS_P1;SDS_P2;PMS_P1;PMS_P2;Temp;Humidity;BMP_temperature;BMP_pressure;BME280_temperature;BME280_humidity;BME280_pressure;Samples;Min_cycle;Max_cycle;Signal;HPM_P1;HPM_P2
2021/10/05 00:00:36;;;;;;;6.28;1.02;;;;;;;;;;4784854;28;20038;-79
2021/10/05 00:03:09;;;;;;;7.00;1.08;;;;;;;;;;4766802;28;20048;-78
2021/10/05 00:05:38;;;;;;;8.80;1.33;;;;;;;;;;4785692;28;20030;-81
2021/10/05 00:08:04;;;;;;;10.73;1.42;;;;;;;;;;4784713;28;20042;-79
2021/10/05 00:10:33;;;;;;;8.02;1.23;;;;;;;;;;4778923;28;20046;-80
2021/10/05 00:13:01;;;;;;;6.32;0.73;;;;;;;;;;4787452;28;21995;-79
2021/10/05 00:15:29;;;;;;;8.82;0.93;;;;;;;;;;4786031;28;20053;-79
2021/10/05 00:18:06;;;;;;;10.60;1.20;;;;;;;;;;4786439;28;20066;-81
2021/10/05 00:20:37;;;;;;;6.38;0.90;;;;;;;;;;4756127;28;22311;-81
2021/10/05 00:23:06;;;;;;;8.15;1.15;;;;;;;;;;4742177;28;20785;-82
2021/10/05 00:25:37;;;;;;;8.25;1.10;;;;;;;;;;4760553;28;20832;-80
2021/10/05 00:28:04;;;;;;;6.93;1.00;;;;;;;;;;4730995;28;20043;-79
2021/10/05 00:30:36;;;;;;;10.10;1.10;;;;;;;;;;4761642;28;20062;-79
2021/10/05 00:33:05;;;;;;;8.52;1.23;;;;;;;;;;4760887;28;21576;-80
2021/10/05 00:35:38;;;;;;;9.73;1.35;;;;;;;;;;4760096;28;20156;-80
2021/10/05 00:38:09;;;;;;;8.57;1.13;;;;;;;;;;4761649;28;20152;-81
2021/10/05 00:40:36;;;;;;;8.35;1.17;;;;;;;;;;4762929;28;20038;-79
2021/10/05 00:43:08;;;;;;;7.00;0.75;;;;;;;;;;4758275;28;20035;-79
2021/10/05 00:45:38;;;;;;;9.23;1.20;;;;;;;;;;4758715;28;20208;-78
2021/10/05 00:48:08;;;;;;;9.48;1.33;;;;;;;;;;4758310;28;20084;-78
2021/10/05 00:50:48;;;;;;;5.90;1.05;;;;;;;;;;4758431;28;20034;-79
2021/10/05 00:53:16;;;;;;;6.93;1.00;;;;;;;;;;4758380;28;21873;-79
2021/10/05 00:55:49;;;;;;;7.97;1.13;;;;;;;;;;4744130;28;20055;-79
2021/10/05 00:58:23;;;;;;;7.95;1.20;;;;;;;;;;4753029;28;20105;-80
2021/10/05 01:01:19;;;;;;;6.68;1.05;;;;;;;;;;4741258;28;20273;-80
2021/10/05 01:03:46;;;;;;;6.57;1.10;;;;;;;;;;4760055;28;20038;-81
2021/10/05 01:06:13;;;;;;;6.35;1.20;;;;;;;;;;4760785;28;21559;-81
2021/10/05 01:08:47;;;;;;;6.82;0.90;;;;;;;;;;4758377;28;20034;-80
2021/10/05 01:11:20;;;;;;;6.30;1.02;;;;;;;;;;4760419;28;20706;-81
2021/10/05 01:13:47;;;;;;;8.88;1.10;;;;;;;;;;4789606;28;21225;-79
2021/10/05 01:16:14;;;;;;;;;;;;;;;;;;4775386;28;20042;-79
2021/10/05 01:18:43;;;;;;;5.43;1.02;;;;;;;;;;4786517;28;21377;-79
2021/10/05 01:21:16;;;;;;;6.43;1.17;;;;;;;;;;4792783;28;20026;-79
2021/10/05 01:23:46;;;;;;;8.27;1.05;;;;;;;;;;4791077;28;20834;-79
2021/10/05 01:26:13;;;;;;;7.50;1.10;;;;;;;;;;4783731;28;21210;-79
2021/10/05 01:28:46;;;;;;;9.35;1.50;;;;;;;;;;4767378;28;20038;-78
2021/10/05 01:31:13;;;;;;;6.70;0.80;;;;;;;;;;4777900;28;20136;-80
2021/10/05 01:33:48;;;;;;;5.53;0.95;;;;;;;;;;4787361;28;20937;-80
2021/10/05 01:36:16;;;;;;;4.75;1.13;;;;;;;;;;4789774;28;20032;-79
2021/10/05 01:38:48;;;;;;;9.88;1.17;;;;;;;;;;4773402;28;20063;-80
2021/10/05 01:41:21;;;;;;;7.35;1.10;;;;;;;;;;4771054;28;20354;-78
2021/10/05 01:43:49;;;;;;;8.90;1.58;;;;;;;;;;4785355;28;20124;-80
2021/10/05 01:46:23;;;;;;;8.73;1.80;;;;;;;;;;4764033;28;20037;-79
2021/10/05 01:48:58;;;;;;;7.65;1.50;;;;;;;;;;4785770;28;20052;-79
2021/10/05 01:51:26;;;;;;;11.05;1.73;;;;;;;;;;4783243;28;20030;-79
2021/10/05 01:53:58;;;;;;;6.45;1.45;;;;;;;;;;4781908;28;20834;-79
2021/10/05 01:56:30;;;;;;;7.90;2.15;;;;;;;;;;4788662;28;20784;-79
2021/10/05 01:59:04;;;;;;;7.68;1.42;;;;;;;;;;4785246;28;20046;-78
2021/10/05 02:01:34;;;;;;;9.25;1.48;;;;;;;;;;4789113;28;20041;-81
2021/10/05 02:04:05;;;;;;;7.28;1.48;;;;;;;;;;4803674;28;20049;-80
2021/10/05 02:06:34;;;;;;;7.13;1.40;;;;;;;;;;4800802;28;20717;-78
2021/10/05 02:09:03;;;;;;;9.25;1.20;;;;;;;;;;4791012;28;21460;-79
2021/10/05 02:11:39;;;;;;;9.45;1.90;;;;;;;;;;4791464;28;20160;-78
2021/10/05 02:14:10;;;;;;;10.23;2.45;;;;;;;;;;4791204;28;20811;-78
2021/10/05 02:16:49;;;;;;;11.05;4.18;;;;;;;;;;4787720;28;20041;-79
2021/10/05 02:19:22;;;;;;;11.02;4.30;;;;;;;;;;4782256;28;20049;-79
2021/10/05 02:21:53;;;;;;;9.98;2.45;;;;;;;;;;4783892;28;20305;-80
2021/10/05 02:26:56;;;;;;;10.10;2.20;;;;;;;;;;4992364;28;20419;-80
2021/10/05 02:29:25;;;;;;;8.65;1.48;;;;;;;;;;4975920;28;20084;-80
2021/10/05 02:31:54;;;;;;;3.90;1.25;;;;;;;;;;4976700;28;20034;-80
2021/10/05 02:34:21;;;;;;;9.55;1.58;;;;;;;;;;4985777;28;20033;-80
2021/10/05 02:36:49;;;;;;;10.57;2.70;;;;;;;;;;4985001;28;20029;-79
2021/10/05 02:39:18;;;;;;;8.63;1.92;;;;;;;;;;4978224;28;20398;-80
2021/10/05 02:41:46;;;;;;;7.43;1.70;;;;;;;;;;4986052;28;20037;-79
2021/10/05 02:44:12;;;;;;;8.32;1.80;;;;;;;;;;4979238;28;20026;-80
2021/10/05 02:46:39;;;;;;;8.18;1.92;;;;;;;;;;4978181;28;20042;-80
2021/10/05 02:49:08;;;;;;;8.68;1.60;;;;;;;;;;4981072;28;20091;-79
2021/10/05 02:51:36;;;;;;;7.05;1.50;;;;;;;;;;4986932;28;20124;-79
2021/10/05 02:54:08;;;;;;;7.95;1.63;;;;;;;;;;4979921;28;20896;-80
2021/10/05 02:56:37;;;;;;;5.80;1.50;;;;;;;;;;5004044;28;20054;-80
2021/10/05 02:59:03;;;;;;;8.73;1.40;;;;;;;;;;4979342;28;20034;-80
2021/10/05 03:01:31;;;;;;;8.18;1.55;;;;;;;;;;4985985;28;20024;-79
2021/10/05 03:03:57;;;;;;;7.75;1.80;;;;;;;;;;4984118;28;20026;-79
2021/10/05 03:06:24;;;;;;;8.20;1.80;;;;;;;;;;4982057;28;20033;-79
2021/10/05 03:08:54;;;;;;;9.32;1.70;;;;;;;;;;4984417;28;20037;-79
2021/10/05 03:11:22;;;;;;;6.28;1.50;;;;;;;;;;4976519;28;20404;-79
2021/10/05 03:13:51;;;;;;;9.13;1.50;;;;;;;;;;4979664;28;20092;-79
2021/10/05 03:16:20;;;;;;;7.90;1.65;;;;;;;;;;4981135;28;20883;-79
2021/10/05 03:18:48;;;;;;;6.00;1.38;;;;;;;;;;4986080;28;20026;-79
2021/10/05 03:21:16;;;;;;;8.80;1.58;;;;;;;;;;4994269;28;20124;-79
2021/10/05 03:23:49;;;;;;;6.63;1.20;;;;;;;;;;4984715;28;20092;-78
2021/10/05 03:26:16;;;;;;;8.02;1.27;;;;;;;;;;4991297;28;20061;-81
2021/10/05 03:28:48;;;;;;;6.28;1.17;;;;;;;;;;4982301;28;20060;-79
2021/10/05 03:31:15;;;;;;;5.90;1.23;;;;;;;;;;4968909;28;20046;-81
2021/10/05 03:33:42;;;;;;;6.18;1.52;;;;;;;;;;5000208;28;20129;-79
2021/10/05 03:36:16;;;;;;;8.35;1.23;;;;;;;;;;4981299;28;20064;-81
2021/10/05 03:38:46;;;;;;;8.68;1.48;;;;;;;;;;4990097;28;21251;-79
2021/10/05 03:41:13;;;;;;;6.68;1.30;;;;;;;;;;4979595;28;20033;-81
2021/10/05 03:43:40;;;;;;;4.53;1.30;;;;;;;;;;4981985;28;20037;-79
2021/10/05 03:46:07;;;;;;;6.43;1.50;;;;;;;;;;4986703;28;20113;-81
2021/10/05 03:48:34;;;;;;;7.75;1.40;;;;;;;;;;5006180;28;20128;-80
2021/10/05 03:51:01;;;;;;;5.85;1.02;;;;;;;;;;4980631;28;20553;-80
2021/10/05 03:53:29;;;;;;;5.07;0.93;;;;;;;;;;4989460;28;20034;-81
2021/10/05 03:55:59;;;;;;;5.55;1.13;;;;;;;;;;4983201;28;20779;-81
2021/10/05 03:58:28;;;;;;;7.10;1.20;;;;;;;;;;4965491;28;20049;-80
2021/10/05 04:00:56;;;;;;;4.43;0.90;;;;;;;;;;4994022;28;20038;-79
2021/10/05 04:03:24;;;;;;;5.53;1.00;;;;;;;;;;4988043;28;20034;-79
2021/10/05 04:05:53;;;;;;;5.78;1.02;;;;;;;;;;4981274;28;20022;-80
2021/10/05 04:08:21;;;;;;;4.65;1.00;;;;;;;;;;4985561;28;20033;-80
2021/10/05 04:10:49;;;;;;;3.92;1.00;;;;;;;;;;4987437;28;20040;-80
2021/10/05 04:13:17;;;;;;;6.78;1.05;;;;;;;;;;4978385;28;20129;-80
2021/10/05 04:15:44;;;;;;;5.78;1.05;;;;;;;;;;4991880;28;20026;-79
2021/10/05 04:18:13;;;;;;;8.32;1.60;;;;;;;;;;4978286;28;20030;-80
2021/10/05 04:20:41;;;;;;;6.10;1.40;;;;;;;;;;4980620;28;20030;-80
2021/10/05 04:23:12;;;;;;;7.95;1.73;;;;;;;;;;4983014;28;20023;-80
2021/10/05 04:25:39;;;;;;;7.00;1.50;;;;;;;;;;4981154;28;20045;-80
2021/10/05 04:28:07;;;;;;;8.30;1.52;;;;;;;;;;4976228;28;20614;-81
2021/10/05 04:30:36;;;;;;;6.60;1.50;;;;;;;;;;4986301;28;20037;-80
2021/10/05 04:33:04;;;;;;;8.88;1.33;;;;;;;;;;4973195;28;20054;-80
2021/10/05 04:35:32;;;;;;;7.25;1.70;;;;;;;;;;4989106;28;20014;-82
2021/10/05 04:37:59;;;;;;;7.28;1.50;;;;;;;;;;4981794;28;20030;-81
2021/10/05 04:40:28;;;;;;;9.40;1.60;;;;;;;;;;4984994;28;20041;-82
2021/10/05 04:42:55;;;;;;;9.73;1.77;;;;;;;;;;4987527;28;20037;-81
2021/10/05 04:45:25;;;;;;;10.27;1.80;;;;;;;;;;4980264;28;20156;-82
2021/10/05 04:47:54;;;;;;;10.32;1.83;;;;;;;;;;4981205;28;20112;-80
2021/10/05 04:50:20;;;;;;;9.95;1.75;;;;;;;;;;4983874;28;20820;-81
2021/10/05 04:52:48;;;;;;;9.07;1.60;;;;;;;;;;4977437;28;20045;-80
2021/10/05 04:55:16;;;;;;;7.10;1.40;;;;;;;;;;4991140;28;20072;-81
2021/10/05 04:57:44;;;;;;;6.05;1.52;;;;;;;;;;4971155;28;20779;-80
2021/10/05 05:00:11;;;;;;;9.20;1.50;;;;;;;;;;4944764;28;20613;-83
2021/10/05 05:02:39;;;;;;;8.75;1.70;;;;;;;;;;4965977;28;20400;-81
2021/10/05 05:05:07;;;;;;;7.30;1.50;;;;;;;;;;4968551;28;20022;-83
2021/10/05 05:07:34;;;;;;;9.98;1.40;;;;;;;;;;4944975;28;20454;-80
2021/10/05 05:10:03;;;;;;;7.05;1.48;;;;;;;;;;4962828;28;20026;-80
2021/10/05 05:12:30;;;;;;;10.82;2.40;;;;;;;;;;4975403;28;20022;-82
2021/10/05 05:15:00;;;;;;;9.98;2.05;;;;;;;;;;4947919;28;20037;-82
2021/10/05 05:17:28;;;;;;;13.93;2.50;;;;;;;;;;4964613;28;20170;-82
2021/10/05 05:19:56;;;;;;;7.88;2.03;;;;;;;;;;4976213;28;20029;-82
2021/10/05 05:22:23;;;;;;;11.25;2.53;;;;;;;;;;4945019;28;20030;-82
2021/10/05 05:24:50;;;;;;;10.85;2.55;;;;;;;;;;4955647;28;20034;-82
2021/10/05 05:27:17;;;;;;;8.63;2.35;;;;;;;;;;4956106;28;20879;-82
2021/10/05 05:29:45;;;;;;;15.93;3.47;;;;;;;;;;4960788;28;20035;-83
2021/10/05 05:32:14;;;;;;;10.13;2.30;;;;;;;;;;4947305;28;20038;-81
2021/10/05 05:34:44;;;;;;;11.70;2.35;;;;;;;;;;4959465;28;20030;-81
2021/10/05 05:37:10;;;;;;;11.50;2.75;;;;;;;;;;4953126;28;20117;-80
2021/10/05 05:39:40;;;;;;;;;;;;;;;;;;4966833;28;20034;-80
2021/10/05 05:42:13;;;;;;;13.07;2.65;;;;;;;;;;4956099;28;19918;-79
2021/10/05 05:44:40;;;;;;;11.88;2.90;;;;;;;;;;4942848;28;20152;-80
2021/10/05 05:47:09;;;;;;;15.70;3.20;;;;;;;;;;4946203;28;20057;-81
2021/10/05 05:49:36;;;;;;;14.85;3.22;;;;;;;;;;4932441;28;20053;-80
2021/10/05 05:52:05;;;;;;;13.18;3.03;;;;;;;;;;4934642;28;20050;-80
2021/10/05 05:54:32;;;;;;;15.70;3.40;;;;;;;;;;4958774;28;20022;-80
2021/10/05 05:57:00;;;;;;;15.77;2.90;;;;;;;;;;4959630;28;21050;-80
2021/10/05 05:59:29;;;;;;;13.50;2.97;;;;;;;;;;4965623;28;20052;-82
2021/10/05 06:01:57;;;;;;;15.20;3.22;;;;;;;;;;4980588;28;20121;-81
2021/10/05 06:04:24;;;;;;;8.80;2.17;;;;;;;;;;4967470;28;20030;-80
2021/10/05 06:06:52;;;;;;;13.20;2.92;;;;;;;;;;4974927;28;20038;-80
2021/10/05 06:09:19;;;;;;;10.73;3.25;;;;;;;;;;4974858;28;20645;-80
2021/10/05 06:11:50;;;;;;;13.40;3.30;;;;;;;;;;4980283;28;20057;-80
2021/10/05 06:14:23;;;;;;;15.68;3.65;;;;;;;;;;4974376;28;21588;-80
2021/10/05 06:16:51;;;;;;;13.82;2.63;;;;;;;;;;4983555;28;20033;-80
2021/10/05 06:19:18;;;;;;;11.80;2.35;;;;;;;;;;4978080;28;22472;-80
2021/10/05 06:21:47;;;;;;;11.27;2.60;;;;;;;;;;4976200;28;20030;-81
2021/10/05 06:24:17;;;;;;;10.93;2.17;;;;;;;;;;4976197;28;20034;-80
2021/10/05 06:26:45;;;;;;;10.30;2.22;;;;;;;;;;4966895;28;20034;-84
2021/10/05 06:29:14;;;;;;;12.68;2.13;;;;;;;;;;4974911;28;20073;-84
2021/10/05 06:31:43;;;;;;;15.00;2.45;;;;;;;;;;4967530;28;20030;-84
2021/10/05 06:34:10;;;;;;;11.55;2.17;;;;;;;;;;4973286;28;20028;-83
2021/10/05 06:36:38;;;;;;;12.18;2.10;;;;;;;;;;4987071;28;20461;-83
2021/10/05 06:39:07;;;;;;;9.13;2.00;;;;;;;;;;4981978;28;20030;-85
2021/10/05 06:41:33;;;;;;;12.40;2.30;;;;;;;;;;4961899;28;20034;-84
2021/10/05 06:44:01;;;;;;;8.95;1.90;;;;;;;;;;4963807;28;20037;-84
2021/10/05 06:46:29;;;;;;;16.23;2.10;;;;;;;;;;4988647;28;20987;-84
2021/10/05 06:48:57;;;;;;;8.38;1.92;;;;;;;;;;4960648;28;20034;-84
2021/10/05 06:51:23;;;;;;;9.20;1.95;;;;;;;;;;4988509;28;21002;-84
2021/10/05 06:53:50;;;;;;;13.30;2.65;;;;;;;;;;4996503;28;20092;-84
2021/10/05 06:56:18;;;;;;;14.38;3.80;;;;;;;;;;4959422;28;20026;-84
2021/10/05 06:58:47;;;;;;;13.75;3.55;;;;;;;;;;4990319;28;20077;-85
2021/10/05 07:01:15;;;;;;;17.85;4.15;;;;;;;;;;4984010;28;20033;-85
2021/10/05 07:03:44;;;;;;;14.65;3.95;;;;;;;;;;4984240;28;20021;-85
2021/10/05 07:06:13;;;;;;;11.38;2.97;;;;;;;;;;4986322;28;20037;-84
2021/10/05 07:08:41;;;;;;;9.00;2.53;;;;;;;;;;4978956;28;20025;-85
2021/10/05 07:11:09;;;;;;;13.77;2.70;;;;;;;;;;4982474;28;20115;-84
2021/10/05 07:13:36;;;;;;;11.50;3.70;;;;;;;;;;4993580;28;20719;-85
2021/10/05 07:16:03;;;;;;;13.48;3.38;;;;;;;;;;4956357;28;20041;-85
2021/10/05 07:18:33;;;;;;;13.25;2.47;;;;;;;;;;4966913;28;20045;-85
2021/10/05 07:21:03;;;;;;;8.02;1.90;;;;;;;;;;4994798;28;20057;-85
2021/10/05 07:23:31;;;;;;;8.68;1.77;;;;;;;;;;4988611;28;20045;-85
2021/10/05 07:26:00;;;;;;;12.68;1.98;;;;;;;;;;4979926;28;20053;-84
2021/10/05 07:28:28;;;;;;;11.82;2.15;;;;;;;;;;4966859;28;20037;-84
2021/10/05 07:30:54;;;;;;;10.35;1.95;;;;;;;;;;4972610;28;20038;-85
2021/10/05 07:33:23;;;;;;;11.15;1.48;;;;;;;;;;4962456;28;20529;-84
2021/10/05 07:35:53;;;;;;;10.07;1.50;;;;;;;;;;4973470;28;20042;-85
2021/10/05 07:38:21;;;;;;;8.32;1.70;;;;;;;;;;4968297;28;21143;-85
2021/10/05 07:40:51;;;;;;;14.77;2.22;;;;;;;;;;4979753;28;20486;-85
2021/10/05 07:43:20;;;;;;;8.98;1.65;;;;;;;;;;4934378;28;20037;-85
2021/10/05 07:45:47;;;;;;;11.68;1.80;;;;;;;;;;4969293;28;20033;-85
2021/10/05 07:48:15;;;;;;;10.65;2.10;;;;;;;;;;4975314;28;20744;-86
2021/10/05 07:50:42;;;;;;;14.15;1.73;;;;;;;;;;4970246;28;20038;-85
2021/10/05 07:53:11;;;;;;;10.95;1.88;;;;;;;;;;4961609;28;20069;-85
2021/10/05 07:55:39;;;;;;;10.88;1.83;;;;;;;;;;4986513;28;20022;-85
2021/10/05 07:58:07;;;;;;;12.68;1.58;;;;;;;;;;4985082;28;20063;-86
2021/10/05 08:00:34;;;;;;;11.15;1.77;;;;;;;;;;4978923;28;20096;-85
2021/10/05 08:03:03;;;;;;;14.65;2.40;;;;;;;;;;4980305;28;20028;-85
2021/10/05 08:05:31;;;;;;;18.10;2.13;;;;;;;;;;4983676;28;20045;-85
2021/10/05 08:08:07;;;;;;;10.20;1.80;;;;;;;;;;4976912;28;20058;-85
2021/10/05 08:10:47;;;;;;;11.35;1.92;;;;;;;;;;4984187;28;20056;-85
2021/10/05 08:13:16;;;;;;;12.88;2.80;;;;;;;;;;4978310;28;20022;-85
2021/10/05 08:15:42;;;;;;;10.88;2.38;;;;;;;;;;4979814;28;20042;-85
2021/10/05 08:18:10;;;;;;;10.68;1.73;;;;;;;;;;4984499;28;20039;-84
2021/10/05 08:20:39;;;;;;;11.07;2.05;;;;;;;;;;4988300;28;20030;-85
2021/10/05 08:23:10;;;;;;;10.65;1.90;;;;;;;;;;4976224;28;20035;-85
2021/10/05 08:25:38;;;;;;;9.75;1.90;;;;;;;;;;4989671;28;20026;-85
2021/10/05 08:28:06;;;;;;;9.43;1.70;;;;;;;;;;4986689;28;20037;-85
2021/10/05 08:30:35;;;;;;;12.43;1.70;;;;;;;;;;4983486;28;20063;-85
2021/10/05 08:33:02;;;;;;;9.93;1.50;;;;;;;;;;4978977;28;20049;-83
2021/10/05 08:35:32;;;;;;;11.82;1.85;;;;;;;;;;4991112;28;20039;-84
2021/10/05 08:37:59;;;;;;;9.88;1.50;;;;;;;;;;4982398;28;20030;-86
2021/10/05 08:40:26;;;;;;;13.02;1.80;;;;;;;;;;4990428;28;20036;-84
2021/10/05 08:42:54;;;;;;;7.30;1.38;;;;;;;;;;4992972;28;20026;-83
2021/10/05 08:45:26;;;;;;;7.90;1.60;;;;;;;;;;4981859;28;20026;-84
2021/10/05 08:47:54;;;;;;;11.57;2.25;;;;;;;;;;4967820;28;20037;-84
2021/10/05 08:50:21;;;;;;;8.82;1.58;;;;;;;;;;4988591;28;21744;-83
2021/10/05 08:52:49;;;;;;;12.63;2.67;;;;;;;;;;4981859;28;20049;-84
2021/10/05 08:55:15;;;;;;;11.75;2.42;;;;;;;;;;4998225;28;20036;-84
2021/10/05 08:57:45;;;;;;;12.27;1.90;;;;;;;;;;4987583;28;20045;-86
2021/10/05 09:00:12;;;;;;;9.93;1.63;;;;;;;;;;4973455;28;20023;-84
2021/10/05 09:02:51;;;;;;;9.00;1.33;;;;;;;;;;4984413;28;20041;-83
2021/10/05 09:05:20;;;;;;;9.10;1.50;;;;;;;;;;4975955;28;20035;-83
2021/10/05 09:07:49;;;;;;;6.10;1.40;;;;;;;;;;4975870;28;20045;-84
2021/10/05 09:10:22;;;;;;;11.27;1.50;;;;;;;;;;4979922;28;20121;-85
2021/10/05 09:12:52;;;;;;;7.78;1.65;;;;;;;;;;4954619;28;20033;-86
2021/10/05 09:15:20;;;;;;;8.88;1.80;;;;;;;;;;4957056;28;21679;-83
2021/10/05 09:18:07;;;;;;;9.45;1.67;;;;;;;;;;4977255;28;20712;-83
2021/10/05 09:20:36;;;;;;;9.93;1.92;;;;;;;;;;4986575;28;20037;-84
2021/10/05 09:23:12;;;;;;;8.27;1.42;;;;;;;;;;4964532;28;20033;-83
2021/10/05 09:25:40;;;;;;;8.45;1.65;;;;;;;;;;4964837;28;20045;-83
2021/10/05 09:28:19;;;;;;;6.95;1.20;;;;;;;;;;4946781;28;20501;-84
2021/10/05 09:31:20;;;;;;;5.18;0.95;;;;;;;;;;4965957;28;20034;-84
2021/10/05 09:33:55;;;;;;;7.45;1.08;;;;;;;;;;4961471;28;20443;-84
2021/10/05 09:36:29;;;;;;;5.93;0.90;;;;;;;;;;4962972;28;20033;-83
2021/10/05 09:39:04;;;;;;;4.10;0.70;;;;;;;;;;4964744;28;20041;-83
2021/10/05 09:41:32;;;;;;;6.22;0.85;;;;;;;;;;4981106;28;20026;-85
2021/10/05 09:44:03;;;;;;;5.93;0.90;;;;;;;;;;4964699;28;20026;-87
2021/10/05 09:46:31;;;;;;;6.60;1.10;;;;;;;;;;4965088;28;20108;-84
2021/10/05 09:49:08;;;;;;;4.88;1.00;;;;;;;;;;4965645;28;20306;-84
2021/10/05 09:51:34;;;;;;;5.57;1.10;;;;;;;;;;4967958;28;20032;-84
2021/10/05 09:54:05;;;;;;;4.88;0.93;;;;;;;;;;4976105;28;20069;-84
2021/10/05 09:56:32;;;;;;;3.97;0.90;;;;;;;;;;4962938;28;20033;-84
2021/10/05 09:59:03;;;;;;;5.25;0.90;;;;;;;;;;4976698;28;20709;-83
2021/10/05 10:01:31;;;;;;;5.10;0.93;;;;;;;;;;4966850;28;20042;-84
2021/10/05 10:03:58;;;;;;;5.93;0.90;;;;;;;;;;4991295;28;20027;-84
2021/10/05 10:06:26;;;;;;;6.43;1.10;;;;;;;;;;4984759;28;20039;-84
2021/10/05 10:08:53;;;;;;;4.10;1.02;;;;;;;;;;5000362;28;20037;-84
2021/10/05 10:11:22;;;;;;;6.95;0.88;;;;;;;;;;4978093;28;20041;-84
2021/10/05 10:13:51;;;;;;;7.40;0.95;;;;;;;;;;4984191;28;20085;-84
2021/10/05 10:16:22;;;;;;;3.00;0.60;;;;;;;;;;4991096;28;20033;-84
2021/10/05 10:18:58;;;;;;;7.60;0.93;;;;;;;;;;4995351;28;20491;-84
2021/10/05 10:21:27;;;;;;;5.43;0.75;;;;;;;;;;4993281;28;20105;-83
2021/10/05 10:24:18;;;;;;;3.22;0.73;;;;;;;;;;4984929;28;20037;-83
2021/10/05 10:26:56;;;;;;;3.90;0.75;;;;;;;;;;4976485;28;20136;-84
2021/10/05 10:29:29;;;;;;;6.43;0.90;;;;;;;;;;4987767;28;20076;-84
2021/10/05 10:31:58;;;;;;;5.15;0.80;;;;;;;;;;4983932;28;20060;-83
2021/10/05 10:34:26;;;;;;;5.45;0.60;;;;;;;;;;4975727;28;20034;-84
2021/10/05 10:36:54;;;;;;;4.13;0.75;;;;;;;;;;4986394;28;20037;-83
2021/10/05 10:39:24;;;;;;;6.03;0.60;;;;;;;;;;4999633;28;20034;-84
2021/10/05 10:42:03;;;;;;;3.92;0.80;;;;;;;;;;4975887;28;20037;-83
2021/10/05 10:44:44;;;;;;;5.40;0.90;;;;;;;;;;4981654;28;20390;-84
2021/10/05 10:47:23;;;;;;;3.97;0.85;;;;;;;;;;4988456;28;20557;-83
2021/10/05 10:49:55;;;;;;;5.03;0.93;;;;;;;;;;5001332;28;20036;-84
2021/10/05 10:52:34;;;;;;;4.38;0.65;;;;;;;;;;4980643;28;20061;-84
2021/10/05 10:55:03;;;;;;;3.75;0.68;;;;;;;;;;4985444;28;20743;-87
2021/10/05 10:57:58;;;;;;;5.78;0.80;;;;;;;;;;4981531;28;20915;-84
2021/10/05 11:00:35;;;;;;;3.67;0.70;;;;;;;;;;4957124;28;20121;-84
2021/10/05 11:03:04;;;;;;;4.88;0.65;;;;;;;;;;4948097;28;20027;-83
2021/10/05 11:05:33;;;;;;;3.15;0.60;;;;;;;;;;4948608;28;20097;-82
2021/10/05 11:08:12;;;;;;;4.55;0.70;;;;;;;;;;4977241;28;20022;-83
2021/10/05 11:10:41;;;;;;;6.38;0.90;;;;;;;;;;4975286;28;20094;-83
2021/10/05 11:13:09;;;;;;;6.82;0.85;;;;;;;;;;4966342;28;20027;-83
2021/10/05 11:16:01;;;;;;;8.13;0.73;;;;;;;;;;4961383;28;20155;-84
2021/10/05 11:18:30;;;;;;;2.08;0.60;;;;;;;;;;4962607;28;20048;-84
2021/10/05 11:21:06;;;;;;;2.88;0.70;;;;;;;;;;4952592;28;20042;-83
2021/10/05 11:23:43;;;;;;;5.50;0.80;;;;;;;;;;4961023;28;20122;-84
2021/10/05 11:26:11;;;;;;;6.45;0.73;;;;;;;;;;4955062;28;20798;-83
2021/10/05 11:28:45;;;;;;;2.90;0.60;;;;;;;;;;4948468;28;20077;-84
2021/10/05 11:31:15;;;;;;;4.25;0.55;;;;;;;;;;4942570;28;20546;-84
2021/10/05 11:33:46;;;;;;;5.50;1.10;;;;;;;;;;4961639;28;20034;-84
2021/10/05 11:36:25;;;;;;;5.68;1.33;;;;;;;;;;4962719;28;20030;-84
2021/10/05 11:38:54;;;;;;;4.30;0.77;;;;;;;;;;4950778;28;20039;-84
2021/10/05 11:41:21;;;;;;;6.88;0.73;;;;;;;;;;4949178;28;20061;-84
2021/10/05 11:43:49;;;;;;;3.75;0.60;;;;;;;;;;4966385;28;20029;-84
2021/10/05 11:46:20;;;;;;;3.70;0.52;;;;;;;;;;4943772;28;20022;-84
2021/10/05 11:48:49;;;;;;;6.68;0.90;;;;;;;;;;4970520;28;20049;-84
2021/10/05 11:51:22;;;;;;;4.07;0.70;;;;;;;;;;4968554;28;21423;-84
2021/10/05 11:53:51;;;;;;;2.90;0.80;;;;;;;;;;4963894;28;20628;-84
2021/10/05 11:56:19;;;;;;;5.07;0.70;;;;;;;;;;4965996;28;20042;-84
2021/10/05 11:58:50;;;;;;;3.15;0.75;;;;;;;;;;4955713;28;20054;-84
2021/10/05 12:01:28;;;;;;;8.52;0.95;;;;;;;;;;4977845;28;20033;-86
2021/10/05 12:04:15;;;;;;;5.55;1.20;;;;;;;;;;4986997;28;20913;-84
2021/10/05 12:06:51;;;;;;;4.63;0.70;;;;;;;;;;4992990;28;20098;-84
2021/10/05 12:09:24;;;;;;;;;;;;;;;;;;4986855;28;22640;-84
2021/10/05 12:12:22;;;;;;;5.45;0.70;;;;;;;;;;4980551;28;20782;-84
2021/10/05 12:15:01;;;;;;;3.25;0.70;;;;;;;;;;4988212;28;20025;-85
2021/10/05 12:17:32;;;;;;;4.55;0.90;;;;;;;;;;5011452;28;20103;-85
2021/10/05 12:20:04;;;;;;;3.00;0.65;;;;;;;;;;4984018;28;20722;-84
2021/10/05 12:22:47;;;;;;;5.95;0.90;;;;;;;;;;4986752;28;20030;-84
2021/10/05 12:25:32;;;;;;;4.50;0.93;;;;;;;;;;4984054;28;20809;-84
2021/10/05 12:27:59;;;;;;;4.55;0.80;;;;;;;;;;4982313;28;20033;-84
2021/10/05 12:30:35;;;;;;;6.15;0.90;;;;;;;;;;4982151;28;20056;-84
2021/10/05 12:33:13;;;;;;;5.50;0.93;;;;;;;;;;4985840;28;20030;-80
2021/10/05 12:35:51;;;;;;;5.30;0.77;;;;;;;;;;4987004;28;20077;-80
2021/10/05 12:38:23;;;;;;;;;;;;;;;;;;4976819;28;21403;-81
2021/10/05 12:41:02;;;;;;;6.10;0.95;;;;;;;;;;4982937;28;19937;-82
2021/10/05 12:43:44;;;;;;;4.85;0.70;;;;;;;;;;4980295;28;20833;-81
2021/10/05 12:46:18;;;;;;;6.97;1.00;;;;;;;;;;4975863;28;20041;-82
2021/10/05 12:48:52;;;;;;;3.90;0.80;;;;;;;;;;4981135;28;20395;-79
2021/10/05 12:51:26;;;;;;;4.38;0.80;;;;;;;;;;4979423;28;20025;-80
2021/10/05 12:53:57;;;;;;;6.00;1.10;;;;;;;;;;4995365;28;20055;-81
2021/10/05 12:56:26;;;;;;;4.47;0.85;;;;;;;;;;4978492;28;20038;-79
2021/10/05 12:58:55;;;;;;;6.13;1.00;;;;;;;;;;4979800;28;20046;-81
2021/10/05 13:01:23;;;;;;;5.22;0.88;;;;;;;;;;4977548;28;20055;-80
2021/10/05 13:03:52;;;;;;;5.13;0.70;;;;;;;;;;4979855;28;20677;-80
2021/10/05 13:06:21;;;;;;;7.28;0.85;;;;;;;;;;4975082;28;20034;-80
2021/10/05 13:08:48;;;;;;;4.75;0.73;;;;;;;;;;4992666;28;20030;-80
2021/10/05 13:11:20;;;;;;;7.63;1.30;;;;;;;;;;4981983;28;20082;-80
2021/10/05 13:13:48;;;;;;;7.35;1.00;;;;;;;;;;4979463;28;20033;-80
2021/10/05 13:16:15;;;;;;;8.15;0.98;;;;;;;;;;4974795;28;20042;-80
2021/10/05 13:18:42;;;;;;;4.95;0.80;;;;;;;;;;4978784;28;20168;-78
2021/10/05 13:21:13;;;;;;;5.40;0.70;;;;;;;;;;4980283;28;20421;-81
2021/10/05 13:23:42;;;;;;;5.03;0.82;;;;;;;;;;4982159;28;20101;-80
2021/10/05 13:26:09;;;;;;;5.72;0.70;;;;;;;;;;4982377;28;20498;-79
2021/10/05 13:28:36;;;;;;;4.57;0.82;;;;;;;;;;4977904;28;20038;-80
2021/10/05 13:31:03;;;;;;;4.97;0.82;;;;;;;;;;4974102;28;20148;-80
2021/10/05 13:33:32;;;;;;;7.15;0.80;;;;;;;;;;4982552;28;20049;-80
2021/10/05 13:35:58;;;;;;;3.72;0.52;;;;;;;;;;4996341;28;20037;-79
2021/10/05 13:38:26;;;;;;;4.05;0.80;;;;;;;;;;4979686;28;20105;-80
2021/10/05 13:40:53;;;;;;;6.15;1.00;;;;;;;;;;4963167;28;20030;-79
2021/10/05 13:43:24;;;;;;;6.43;0.90;;;;;;;;;;4976966;28;20104;-79
2021/10/05 13:45:51;;;;;;;4.25;0.70;;;;;;;;;;4962864;28;20046;-80
2021/10/05 13:48:19;;;;;;;2.83;0.73;;;;;;;;;;4980130;28;20413;-80
2021/10/05 13:50:46;;;;;;;5.05;0.80;;;;;;;;;;4979589;28;20033;-80
2021/10/05 13:53:13;;;;;;;2.88;0.70;;;;;;;;;;4978435;28;20045;-81
2021/10/05 13:55:43;;;;;;;5.53;0.70;;;;;;;;;;4988954;28;20103;-81
2021/10/05 13:58:13;;;;;;;3.30;0.60;;;;;;;;;;4978430;28;20036;-81
2021/10/05 14:00:42;;;;;;;8.38;0.93;;;;;;;;;;4959900;28;20037;-82
2021/10/05 14:03:11;;;;;;;3.58;0.55;;;;;;;;;;4983612;28;20033;-81
2021/10/05 14:05:40;;;;;;;4.53;0.65;;;;;;;;;;4964543;28;20832;-81
2021/10/05 14:08:09;;;;;;;4.57;0.80;;;;;;;;;;4978029;28;20057;-81
2021/10/05 14:10:38;;;;;;;5.32;0.80;;;;;;;;;;4970477;28;20034;-80
2021/10/05 14:13:08;;;;;;;3.25;0.60;;;;;;;;;;4959846;28;20029;-79
2021/10/05 14:15:35;;;;;;;5.38;0.70;;;;;;;;;;4975309;28;20041;-79
2021/10/05 14:18:06;;;;;;;3.45;0.70;;;;;;;;;;4963587;28;20040;-80
2021/10/05 14:20:35;;;;;;;4.40;0.77;;;;;;;;;;4966947;28;20038;-79
2021/10/05 14:23:05;;;;;;;5.68;0.82;;;;;;;;;;4843918;28;20042;-80
2021/10/05 14:25:42;;;;;;;3.70;0.63;;;;;;;;;;4769634;28;20033;-79
2021/10/05 14:28:28;;;;;;;1.90;0.50;;;;;;;;;;4786355;28;20490;-81
2021/10/05 14:31:08;;;;;;;4.30;0.60;;;;;;;;;;4762716;28;20185;-79
2021/10/05 14:33:40;;;;;;;4.07;0.95;;;;;;;;;;4781025;28;20719;-81
2021/10/05 14:36:08;;;;;;;3.58;0.65;;;;;;;;;;4768667;28;20048;-80
2021/10/05 14:38:37;;;;;;;4.95;0.80;;;;;;;;;;4780935;28;20837;-79
2021/10/05 14:41:18;;;;;;;5.80;0.88;;;;;;;;;;4782918;28;20164;-82
2021/10/05 14:43:49;;;;;;;4.55;0.80;;;;;;;;;;4759700;28;20044;-79
2021/10/05 14:46:17;;;;;;;3.42;0.68;;;;;;;;;;4778195;28;20049;-81
2021/10/05 14:48:55;;;;;;;4.32;0.70;;;;;;;;;;4765135;28;20057;-79
2021/10/05 14:51:24;;;;;;;4.55;0.75;;;;;;;;;;4782228;28;20851;-81
2021/10/05 14:54:04;;;;;;;4.93;0.90;;;;;;;;;;4779990;28;20660;-79
2021/10/05 14:56:41;;;;;;;5.38;0.93;;;;;;;;;;4784797;28;20782;-78
2021/10/05 14:59:27;;;;;;;6.20;1.10;;;;;;;;;;4786712;28;21123;-79
2021/10/05 15:02:20;;;;;;;2.95;0.80;;;;;;;;;;4782333;28;20038;-79